Terminal Aerodrome Forecast
Issued by NWS Upton, NY

Home | Current Version | Previous Version | Text Only | Print | Product List | Glossary On
Versions: 1 2 3 4 5 6 7 8 9 10 11 12 13 14 15 16 17 18 19 20 21 22 23 24 25 26 27 28 29 30 31 32 33 34 35 36 37 38 39 40 41 42 43
963
FTUS41 KOKX 181742
TAFEWR
TAF
KEWR 181742Z 1818/1924 01011KT P6SM SCT007 OVC012
      TEMPO 1818/1820 BKN007 OVC012
     FM182300 34007KT P6SM BKN020 OVC030
     FM190500 33005KT P6SM SCT025 BKN050
     FM191200 32006KT P6SM FEW040 SCT100
     FM191900 31007KT P6SM SCT025=

USA.gov is the U.S. government's official web portal to all federal, state and local government web resources and services.